Terminal Aerodrome Forecast
Issued by NWS St Louis, MO

Home | Current Version | Previous Version | Graphics & Text | Print | Product List | Glossary On
Versions: 1 2 3 4 5 6 7 8 9 10 11 12 13 14 15 16 17 18 19 20 21 22 23 24 25 26 27 28
000
FTUS43 KLSX 282300
TAFSTL
TAF
KSTL 282338Z 2900/3006 16010G20KT P6SM VCTS SCT040CB BKN080
      TEMPO 2900/2901 6SM -TSRA BKN040CB
     FM290200 13006KT P6SM SCT120 BKN250
     FM291500 18008KT P6SM SCT035 BKN120
     FM292100 18009KT P6SM VCTS BKN045CB
     FM300300 19008KT P6SM SCT050 BKN120=

USA.gov is the U.S. government's official web portal to all federal, state and local government web resources and services.